| time (UTC) | temp F | wind direction | speed MPH | gust MPH | rain 1hr in | rain 24hr in | rain mn in | humidity % | barometer mb |
| 20260906201508 | 81 | 181 | 2.0 | 5.0 | 0.00 | 0.00 | 0.00 | 72 | 1014.6 |
| 20260906200006 | 80 | 175 | 0.0 | 5.0 | 0.00 | 0.00 | 0.00 | 74 | 1014.5 |
| 20260906194506 | 80 | 175 | 0.0 | 6.0 | 0.00 | 0.00 | 0.00 | 73 | 1014.2 |
| 20260906191506 | 79 | 155 | 2.0 | 9.0 | 0.00 | 0.00 | 0.00 | 73 | 1013.9 |
| 20260906190003 | 79 | 190 | 6.0 | 10.0 | 0.00 | 0.00 | 0.00 | 74 | 1014.3 |
| 20260906184602 | 79 | 190 | 8.0 | 13.0 | 0.00 | 0.00 | 0.00 | 73 | 1014.7 |
| 20260906183201 | 80 | 165 | 6.0 | 11.0 | 0.00 | 0.00 | 0.00 | 72 | 1014.7 |
| 20260906181558 | 80 | 147 | 6.0 | 12.0 | 0.00 | 0.00 | 0.00 | 73 | 1015.0 |
| 20260906180056 | 79 | 173 | 7.0 | 12.0 | 0.00 | 0.00 | 0.00 | 73 | 1015.1 |
| 20260906174557 | 78 | 141 | 7.0 | 13.0 | 0.00 | 0.00 | 0.00 | 74 | 1015.3 |
| 20260906173152 | 77 | 112 | 6.0 | 13.0 | 0.00 | 0.00 | 0.00 | 74 | 1015.2 |
| 20260906171552 | 76 | 105 | 10.0 | 12.0 | 0.00 | 0.00 | 0.00 | 75 | 1015.5 |
| 20260906170048 | 76 | 128 | 8.0 | 13.0 | 0.00 | 0.04 | 0.00 | 76 | 1015.6 |
| 20260906164544 | 75 | 118 | 9.0 | 13.0 | 0.00 | 0.04 | 0.00 | 76 | 1016.0 |
| 20260906163142 | 74 | 121 | 6.0 | 10.0 | 0.00 | 0.04 | 0.00 | 76 | 1016.1 |
| 20260906161538 | 74 | 123 | 5.0 | 11.0 | 0.00 | 0.04 | 0.00 | 77 | 1016.3 |
| 20260906160036 | 74 | 109 | 4.0 | 11.0 | 0.00 | 0.34 | 0.00 | 77 | 1016.4 |
| 20260906154535 | 73 | 107 | 5.0 | 11.0 | 0.00 | 0.34 | 0.00 | 77 | 1016.5 |
| 20260906153134 | 73 | 87 | 8.0 | 10.0 | 0.00 | 0.34 | 0.00 | 77 | 1016.5 |
| 20260906151534 | 73 | 102 | 5.0 | 9.0 | 0.00 | 0.34 | 0.00 | 78 | 1016.6 |
| 20260906150035 | 72 | 112 | 6.0 | 8.0 | 0.00 | 0.34 | 0.00 | 78 | 1016.7 |
| 20260906144531 | 71 | 115 | 5.0 | 7.0 | 0.00 | 0.34 | 0.00 | 79 | 1016.9 |
| 20260906143127 | 71 | 114 | 5.0 | 8.0 | 0.00 | 0.34 | 0.00 | 79 | 1016.8 |
| 20260906141526 | 71 | 123 | 4.0 | 8.0 | 0.00 | 0.34 | 0.00 | 79 | 1016.8 |
| 20260906140040 | 71 | 122 | 6.0 | 9.0 | 0.00 | 0.34 | 0.00 | 79 | 1016.9 |
| 20260906134525 | 69 | 115 | 7.0 | 11.0 | 0.00 | 0.34 | 0.00 | 82 | 1017.0 |
| 20260906133019 | 68 | 118 | 4.0 | 7.0 | 0.00 | 0.34 | 0.00 | 84 | 1016.8 |
| 20260906131516 | 66 | 146 | 2.0 | 4.0 | 0.00 | 0.34 | 0.00 | 84 | 1016.9 |
| 20260906130015 | 65 | 147 | 1.0 | 3.0 | 0.00 | 0.34 | 0.00 | 83 | 1016.8 |
| 20260906124513 | 64 | 148 | 1.0 | 3.0 | 0.00 | 0.34 | 0.00 | 84 | 1016.7 |
| 20260906123015 | 63 | 148 | 0.0 | 0.0 | 0.00 | 0.34 | 0.00 | 83 | 1016.6 |
| 20260906121512 | 63 | 148 | 0.0 | 2.0 | 0.00 | 0.34 | 0.00 | 83 | 1016.6 |
| 20260906120010 | 64 | 148 | 1.0 | 2.0 | 0.00 | 0.34 | 0.00 | 82 | 1016.5 |
| 20260906114514 | 64 | 148 | 1.0 | 3.0 | 0.00 | 0.34 | 0.00 | 82 | 1016.3 |
| 20260906113108 | 64 | 148 | 1.0 | 3.0 | 0.00 | 0.34 | 0.00 | 82 | 1016.3 |
| 20260906111505 | 65 | 150 | 3.0 | 5.0 | 0.00 | 0.34 | 0.00 | 82 | 1016.4 |
| 20260906110002 | 65 | 152 | 1.0 | 2.0 | 0.00 | 0.34 | 0.00 | 82 | 1016.1 |
| 20260906104504 | 65 | 152 | 2.0 | 6.0 | 0.00 | 0.34 | 0.00 | 82 | 1015.8 |
| 20260906103101 | 65 | 145 | 4.0 | 8.0 | 0.00 | 0.34 | 0.00 | 82 | 1015.7 |
| 20260906101503 | 65 | 158 | 3.0 | 5.0 | 0.00 | 0.34 | 0.00 | 81 | 1015.9 |
| 20260906100100 | 65 | 152 | 4.0 | 7.0 | 0.00 | 0.34 | 0.00 | 81 | 1015.9 |
| 20260906094609 | 66 | 141 | 4.0 | 7.0 | 0.00 | 0.34 | 0.00 | 81 | 1016.0 |
| 20260906093114 | 66 | 128 | 3.0 | 5.0 | 0.00 | 0.34 | 0.00 | 81 | 1015.8 |
| 20260906091559 | 66 | 123 | 4.0 | 8.0 | 0.00 | 0.34 | 0.00 | 81 | 1015.8 |
| 20260906090135 | 66 | 139 | 5.0 | 10.0 | 0.00 | 0.34 | 0.00 | 81 | 1015.8 |
| 20260906084609 | 66 | 138 | 7.0 | 11.0 | 0.00 | 0.34 | 0.00 | 81 | 1015.8 |
| 20260906083055 | 66 | 139 | 5.0 | 9.0 | 0.00 | 0.34 | 0.00 | 81 | 1016.0 |
| 20260906081552 | 66 | 138 | 4.0 | 8.0 | 0.00 | 0.34 | 0.00 | 81 | 1015.9 |
| 20260906080103 | 65 | 115 | 3.0 | 4.0 | 0.00 | 0.34 | 0.34 | 81 | 1016.2 |
| 20260906074555 | 65 | 111 | 1.0 | 3.0 | 0.00 | 0.34 | 0.34 | 80 | 1016.2 |
| 20260906073053 | 65 | 111 | 2.0 | 4.0 | 0.00 | 0.34 | 0.34 | 80 | 1016.3 |
| 20260906071551 | 66 | 111 | 1.0 | 3.0 | 0.00 | 0.34 | 0.34 | 80 | 1016.5 |
| 20260906070051 | 66 | 112 | 2.0 | 3.0 | 0.00 | 0.34 | 0.34 | 80 | 1016.7 |
| 20260906064550 | 66 | 113 | 2.0 | 4.0 | 0.00 | 0.34 | 0.34 | 80 | 1016.9 |
| 20260906063054 | 66 | 112 | 0.0 | 1.0 | 0.00 | 0.34 | 0.34 | 80 | 1016.9 |
| 20260906061554 | 67 | 112 | 1.0 | 4.0 | 0.00 | 0.34 | 0.34 | 81 | 1016.7 |
| 20260906060048 | 66 | 111 | 2.0 | 6.0 | 0.00 | 0.34 | 0.34 | 81 | 1016.4 |
| 20260906054549 | 65 | 73 | 2.0 | 4.0 | 0.00 | 0.34 | 0.34 | 79 | 1016.4 |
| 20260906053103 | 66 | 24 | 2.0 | 3.0 | 0.00 | 0.34 | 0.34 | 79 | 1016.5 |
| 20260906051548 | 67 | 24 | 5.0 | 6.0 | 0.00 | 0.34 | 0.34 | 78 | 1016.5 |
| 20260906050047 | 68 | 81 | 3.0 | 5.0 | 0.00 | 0.34 | 0.34 | 79 | 1016.3 |
| 20260906044547 | 68 | 58 | 3.0 | 8.0 | 0.00 | 0.34 | 0.34 | 78 | 1016.3 |
| 20260906043049 | 68 | 103 | 6.0 | 12.0 | 0.00 | 0.34 | 0.34 | 79 | 1016.0 |
| 20260906041554 | 67 | 98 | 9.0 | 14.0 | 0.00 | 0.34 | 0.34 | 79 | 1015.6 |
| 20260906040046 | 67 | 85 | 6.0 | 9.0 | 0.00 | 0.34 | 0.34 | 79 | 1016.1 |
| 20260906034546 | 67 | 84 | 4.0 | 8.0 | 0.00 | 0.34 | 0.34 | 78 | 1016.4 |
| 20260906033047 | 67 | 42 | 3.0 | 6.0 | 0.00 | 0.34 | 0.34 | 78 | 1016.8 |
| 20260906031544 | 68 | 65 | 2.0 | 5.0 | 0.00 | 0.34 | 0.34 | 77 | 1016.9 |
| 20260906030050 | 68 | 53 | 4.0 | 6.0 | 0.00 | 0.34 | 0.34 | 77 | 1017.0 |
| 20260906024605 | 69 | 56 | 4.0 | 7.0 | 0.00 | 0.34 | 0.34 | 77 | 1016.8 |
| 20260906023047 | 69 | 55 | 4.0 | 9.0 | 0.00 | 0.34 | 0.34 | 77 | 1016.6 |
| 20260906021543 | 69 | 42 | 5.0 | 7.0 | 0.00 | 0.34 | 0.34 | 77 | 1016.5 |
| 20260906020044 | 70 | 58 | 5.0 | 7.0 | 0.00 | 0.34 | 0.34 | 77 | 1016.3 |
| 20260906014550 | 70 | 74 | 5.0 | 8.0 | 0.00 | 0.34 | 0.34 | 77 | 1016.1 |
| 20260906013043 | 72 | 65 | 2.0 | 4.0 | 0.00 | 0.34 | 0.34 | 75 | 1016.1 |
| 20260906011555 | 73 | 67 | 3.0 | 4.0 | 0.00 | 0.34 | 0.34 | 75 | 1016.0 |
| 20260906010101 | 74 | 65 | 0.0 | 1.0 | 0.00 | 0.34 | 0.34 | 74 | 1015.5 |
| 20260906004546 | 75 | 65 | 1.0 | 3.0 | 0.00 | 0.34 | 0.34 | 73 | 1015.2 |
| 20260906003044 | 76 | 66 | 2.0 | 4.0 | 0.00 | 0.34 | 0.34 | 71 | 1015.0 |
| 20260906001558 | 77 | 66 | 2.0 | 4.0 | 0.00 | 0.34 | 0.34 | 70 | 1014.5 |
| 20260906000040 | 79 | 71 | 4.0 | 9.0 | 0.00 | 0.34 | 0.34 | 69 | 1014.1 |
| 20260905234541 | 79 | 86 | 8.0 | 13.0 | 0.00 | 0.34 | 0.34 | 68 | 1013.6 |
| 20260905233040 | 81 | 117 | 9.0 | 14.0 | 0.00 | 0.34 | 0.34 | 65 | 1013.4 |
| 20260905231544 | 82 | 90 | 9.0 | 11.0 | 0.00 | 0.34 | 0.34 | 65 | 1013.3 |
| 20260905230044 | 83 | 159 | 7.0 | 11.0 | 0.00 | 0.34 | 0.34 | 63 | 1013.4 |
| 20260905224544 | 82 | 134 | 3.0 | 7.0 | 0.00 | 0.34 | 0.34 | 64 | 1013.5 |
| 20260905223041 | 83 | 142 | 1.0 | 4.0 | 0.00 | 0.34 | 0.34 | 62 | 1013.4 |
| 20260905221541 | 83 | 141 | 3.0 | 8.0 | 0.00 | 0.34 | 0.34 | 62 | 1013.5 |
| 20260905220036 | 83 | 129 | 3.0 | 10.0 | 0.00 | 0.34 | 0.34 | 62 | 1013.7 |
| 20260905214535 | 83 | 130 | 5.0 | 10.0 | 0.00 | 0.34 | 0.34 | 63 | 1014.0 |
| 20260905213033 | 82 | 175 | 4.0 | 8.0 | 0.00 | 0.34 | 0.34 | 62 | 1014.0 |
| 20260905211541 | 82 | 188 | 6.0 | 10.0 | 0.00 | 0.34 | 0.34 | 64 | 1014.1 |
| 20260905210033 | 81 | 184 | 0.0 | 10.0 | 0.00 | 0.34 | 0.34 | 66 | 1014.0 |
| 20260905204531 | 81 | 171 | 8.0 | 18.0 | 0.00 | 0.34 | 0.34 | 65 | 1013.8 |
| 20260905203038 | 79 | 200 | 13.0 | 25.0 | 0.00 | 0.34 | 0.34 | 68 | 1013.6 |